Redig, South Dakota
Current Conditions -  °F | °C
As of 1:15 PM on Friday 21 Nov 2014 (Local Time) from KSPF Reporting Station
Clear Clear  
Wind Chill: 50°   Ceiling: Unl
Heat Index: 50°   Visibility: 10mi
Dew Point: 25°   Wind: 3mph
Humidity: 37%   Direction: 230°SW
Pressure: 29.82"   Gusts: NA
Location:  45.27°N, 103.55°W
Report Text: KSPF 212015Z AUTO 23003KT 10SM CLR 10/M04 A2982 RMK AO2
Loading
Personal Weather Stations






























Interactive Weather Map New forecast layout! Learn more

10-Day Weather Forecast

Advertisements
Track Severe Weather on mobile